createdAt,value
2023-03-21T00:00:16.645Z,295
2023-03-21T00:00:47.420Z,295
2023-03-21T00:01:19.516Z,290
2023-03-21T00:01:49.220Z,296
2023-03-21T00:02:20.327Z,296
2023-03-21T00:02:51.548Z,297
2023-03-21T00:03:22.277Z,297
2023-03-21T00:03:53.255Z,297
2023-03-21T00:04:24.281Z,296
2023-03-21T00:04:58.520Z,293
2023-03-21T00:05:26.703Z,290
2023-03-21T00:05:57.336Z,290
2023-03-21T00:06:29.352Z,296
2023-03-21T00:06:59.494Z,296
2023-03-21T00:07:30.532Z,294
2023-03-21T00:34:31.815Z,293
2023-03-21T00:35:02.537Z,293
2023-03-21T00:36:06.251Z,293
2023-03-21T00:36:26.511Z,293
2023-03-21T00:36:57.539Z,293
2023-03-21T00:37:29.515Z,293
2023-03-21T00:37:59.546Z,293
2023-03-21T00:38:30.504Z,293
2023-03-21T00:39:01.581Z,293
2023-03-21T00:39:32.431Z,293
2023-03-21T00:40:03.450Z,293
2023-03-21T00:40:40.434Z,293
2023-03-21T00:41:18.825Z,293
2023-03-21T00:41:42.911Z,293
2023-03-21T00:42:07.881Z,293
2023-03-21T00:42:39.448Z,293
2023-03-21T00:43:09.486Z,293
2023-03-21T00:43:40.461Z,293
2023-03-21T00:44:11.239Z,293
2023-03-21T00:44:42.453Z,293
2023-03-21T00:45:13.583Z,293
2023-03-21T00:45:44.574Z,293
2023-03-21T00:46:15.577Z,293
2023-03-21T00:46:54.505Z,293
2023-03-21T00:47:17.593Z,293
2023-03-21T00:47:49.635Z,293
2023-03-21T00:48:19.707Z,293
2023-03-21T00:48:50.441Z,293
2023-03-21T00:49:21.582Z,293
2023-03-21T00:49:52.775Z,293
2023-03-21T00:50:23.670Z,297
2023-03-21T00:50:54.499Z,297
2023-03-21T00:51:25.402Z,297
2023-03-21T00:51:59.522Z,297
2023-03-21T00:52:40.156Z,297
2023-03-21T00:52:59.477Z,297
2023-03-21T00:53:29.640Z,297
2023-03-21T00:54:00.410Z,297
2023-03-21T00:54:31.517Z,297
2023-03-21T00:55:02.480Z,297
2023-03-21T00:55:33.240Z,297
2023-03-21T00:56:04.450Z,297
2023-03-21T00:56:35.517Z,297
2023-03-21T00:57:06.376Z,297
2023-03-21T00:57:39.616Z,297
2023-03-21T00:58:09.455Z,297
2023-03-21T00:58:39.546Z,297
2023-03-21T00:59:10.824Z,297
2023-03-21T00:59:41.446Z,297
2023-03-21T01:00:15.211Z,297
2023-03-21T01:00:43.373Z,297
2023-03-21T01:01:14.702Z,297
2023-03-21T01:01:45.585Z,297
2023-03-21T01:02:16.292Z,297
2023-03-21T01:02:51.832Z,297
2023-03-21T01:03:24.974Z,297
2023-03-21T01:03:49.497Z,297
2023-03-21T01:04:20.539Z,297
2023-03-21T01:04:51.561Z,297
2023-03-21T01:05:22.466Z,297
2023-03-21T01:05:53.323Z,297
2023-03-21T01:06:24.562Z,297
2023-03-21T01:06:55.502Z,297
2023-03-21T01:07:26.447Z,297
2023-03-21T01:07:57.617Z,297
2023-03-21T01:08:38.202Z,297
2023-03-21T01:08:59.752Z,297
2023-03-21T01:09:30.621Z,297
2023-03-21T01:10:01.789Z,297
2023-03-21T01:10:32.410Z,297
2023-03-21T01:11:03.554Z,297
2023-03-21T01:11:34.377Z,297
2023-03-21T01:12:06.363Z,297
2023-03-21T01:12:36.586Z,297
2023-03-21T01:13:07.650Z,297
2023-03-21T01:13:47.447Z,297
2023-03-21T01:14:21.350Z,296
2023-03-21T01:14:40.467Z,296
2023-03-21T01:15:14.090Z,296
2023-03-21T01:15:42.566Z,297
2023-03-21T01:16:13.471Z,297
2023-03-21T01:16:44.580Z,297
2023-03-21T01:17:15.431Z,297
2023-03-21T01:17:46.500Z,297
2023-03-21T01:18:17.232Z,297
2023-03-21T01:18:49.309Z,297
2023-03-21T01:19:25.623Z,297
2023-03-21T01:19:52.287Z,297
2023-03-21T01:20:21.424Z,297
2023-03-21T01:20:52.409Z,297
2023-03-21T01:21:23.183Z,297
2023-03-21T01:21:54.537Z,297
2023-03-21T01:22:25.492Z,297
2023-03-21T01:22:56.366Z,297
2023-03-21T01:23:27.425Z,297
2023-03-21T01:23:59.535Z,297
2023-03-21T01:24:29.557Z,297
2023-03-21T01:25:08.873Z,297
2023-03-21T01:25:31.476Z,297
2023-03-21T01:26:02.193Z,297
2023-03-21T01:26:33.615Z,297
2023-03-21T01:27:04.744Z,297
2023-03-21T01:27:35.336Z,297
2023-03-21T01:28:06.612Z,297
2023-03-21T01:28:37.513Z,297
2023-03-21T01:29:09.574Z,297
2023-03-21T01:29:39.617Z,297
2023-03-21T01:30:20.241Z,297
2023-03-21T01:30:42.134Z,297
2023-03-21T01:31:12.536Z,297
2023-03-21T01:31:43.504Z,297
2023-03-21T01:32:14.599Z,297
2023-03-21T01:32:45.420Z,297
2023-03-21T01:33:16.461Z,297
2023-03-21T01:33:47.288Z,297
2023-03-21T01:34:19.822Z,297
2023-03-21T01:34:49.553Z,297
2023-03-21T01:35:20.588Z,297
2023-03-21T01:36:03.086Z,297
2023-03-21T01:36:23.919Z,297
2023-03-21T01:36:53.365Z,297
2023-03-21T01:37:24.540Z,297
2023-03-21T01:37:55.458Z,297
2023-03-21T01:38:26.375Z,297
2023-03-21T01:38:57.540Z,297
2023-03-21T01:39:29.523Z,297
2023-03-21T01:39:59.697Z,297
2023-03-21T01:40:37.329Z,297
2023-03-21T01:41:06.166Z,297
2023-03-21T01:41:42.620Z,297
2023-03-21T01:42:04.041Z,297
2023-03-21T01:42:34.654Z,297
2023-03-21T01:43:06.030Z,296
2023-03-21T01:43:36.754Z,296
2023-03-21T01:44:07.625Z,296
2023-03-21T01:44:39.894Z,296
2023-03-21T01:45:12.744Z,297
2023-03-21T01:45:40.993Z,297
2023-03-21T01:46:11.627Z,297
2023-03-21T01:46:57.415Z,297
2023-03-21T01:47:13.630Z,297
2023-03-21T01:47:44.886Z,297
2023-03-21T01:48:15.607Z,297
2023-03-21T01:48:46.764Z,297
2023-03-21T01:49:17.762Z,297
2023-03-21T01:49:49.767Z,297
2023-03-21T01:50:19.793Z,297
2023-03-21T01:50:50.976Z,297
2023-03-21T01:51:21.787Z,296
2023-03-21T01:51:53.712Z,297
2023-03-21T01:52:35.356Z,297
2023-03-21T01:52:54.846Z,297
2023-03-21T01:53:25.791Z,297
2023-03-21T01:53:56.733Z,297
2023-03-21T01:54:27.760Z,297
2023-03-21T01:54:59.761Z,296
2023-03-21T01:55:29.891Z,296
2023-03-21T01:56:00.787Z,296
2023-03-21T01:56:31.683Z,296
2023-03-21T01:57:02.643Z,296
2023-03-21T01:57:42.417Z,296
2023-03-21T01:58:06.732Z,296
2023-03-21T01:58:35.964Z,296
2023-03-21T01:59:06.350Z,296
2023-03-21T01:59:38.101Z,296
2023-03-21T02:00:13.459Z,296
2023-03-21T02:00:40.008Z,296
2023-03-21T02:01:10.988Z,296
2023-03-21T02:01:41.533Z,296
2023-03-21T02:02:12.587Z,296
2023-03-21T02:02:44.193Z,299
2023-03-21T02:03:23.519Z,299
2023-03-21T02:03:45.848Z,299
2023-03-21T02:04:16.717Z,299
2023-03-21T02:04:47.657Z,299
2023-03-21T02:05:19.581Z,299
2023-03-21T02:05:49.696Z,299
2023-03-21T02:06:20.824Z,299
2023-03-21T02:06:51.763Z,299
2023-03-21T02:07:23.077Z,299
2023-03-21T02:07:53.967Z,299
2023-03-21T02:08:36.820Z,299
2023-03-21T02:08:55.524Z,299
2023-03-21T02:09:26.908Z,299
2023-03-21T02:09:57.720Z,299
2023-03-21T02:10:29.756Z,299
2023-03-21T02:10:59.588Z,299
2023-03-21T02:11:30.977Z,299
2023-03-21T02:12:02.058Z,299
2023-03-21T02:12:34.706Z,299
2023-03-21T02:13:03.458Z,299
2023-03-21T02:13:34.708Z,299
2023-03-21T02:14:07.040Z,299
2023-03-21T02:14:36.734Z,299
2023-03-21T02:15:10.992Z,299
2023-03-21T02:15:39.667Z,299
2023-03-21T02:16:09.574Z,299
2023-03-21T02:16:40.575Z,299
2023-03-21T02:17:11.652Z,299
2023-03-21T02:17:42.757Z,299
2023-03-21T02:18:13.985Z,299
2023-03-21T02:18:44.800Z,299
2023-03-21T02:19:20.102Z,299
2023-03-21T02:19:52.957Z,299
2023-03-21T02:20:17.638Z,299
2023-03-21T02:20:49.586Z,299
2023-03-21T02:21:20.252Z,299
2023-03-21T02:21:50.994Z,299
2023-03-21T02:22:21.556Z,299
2023-03-21T02:22:52.828Z,299
2023-03-21T02:23:23.711Z,299
2023-03-21T02:23:55.121Z,299
2023-03-21T02:24:25.760Z,299
2023-03-21T02:25:01.317Z,299
2023-03-21T02:25:27.745Z,299
2023-03-21T02:25:59.686Z,299
2023-03-21T02:26:39.505Z,299
2023-03-21T02:27:04.334Z,299
2023-03-21T02:27:31.469Z,299
2023-03-21T02:28:02.640Z,299
2023-03-21T02:28:33.967Z,299
2023-03-21T02:29:05.334Z,299
2023-03-21T02:29:35.863Z,299
2023-03-21T02:30:13.009Z,299
2023-03-21T02:30:50.821Z,299
2023-03-21T02:31:10.089Z,299
2023-03-21T02:31:40.057Z,299
2023-03-21T02:32:22.431Z,299
2023-03-21T02:32:41.964Z,299
2023-03-21T02:33:12.678Z,299
2023-03-21T02:33:43.499Z,299
2023-03-21T02:34:14.666Z,299
2023-03-21T02:34:45.982Z,299
2023-03-21T02:35:16.911Z,299
2023-03-21T02:35:53.651Z,299
2023-03-21T02:36:19.697Z,299
2023-03-21T02:36:49.816Z,299
2023-03-21T02:37:23.567Z,299
2023-03-21T02:37:58.459Z,299
2023-03-21T02:38:22.926Z,299
2023-03-21T02:38:53.955Z,299
2023-03-21T02:39:25.058Z,299
2023-03-21T02:39:56.041Z,299
2023-03-21T02:40:26.823Z,299
2023-03-21T02:40:57.692Z,299
2023-03-21T02:41:35.236Z,298
2023-03-21T02:42:00.099Z,293
2023-03-21T02:42:30.522Z,293
2023-03-21T02:43:01.991Z,289
2023-03-21T02:43:32.956Z,286
2023-03-21T02:44:03.692Z,286
2023-03-21T02:44:34.803Z,287
2023-03-21T02:45:08.650Z,288
2023-03-21T02:45:36.783Z,288
2023-03-21T02:46:08.057Z,289
2023-03-21T02:46:44.116Z,289
2023-03-21T02:47:11.473Z,289
2023-03-21T02:47:40.798Z,289
2023-03-21T02:48:20.278Z,289
2023-03-21T02:48:50.681Z,290
2023-03-21T02:49:13.912Z,315
2023-03-21T02:49:44.932Z,315
2023-03-21T02:50:16.158Z,315
2023-03-21T02:50:46.720Z,315
2023-03-21T02:51:17.816Z,315
2023-03-21T02:51:49.780Z,315
2023-03-21T02:52:35.441Z,315
2023-03-21T02:52:50.749Z,315
2023-03-21T02:53:21.686Z,315
2023-03-21T02:54:13.018Z,315
2023-03-21T02:54:54.742Z,315
2023-03-21T02:55:25.772Z,315
2023-03-21T02:55:56.923Z,315
2023-03-21T02:56:27.789Z,315
2023-03-21T02:56:59.847Z,315
2023-03-21T02:57:41.920Z,315
2023-03-21T02:58:07.127Z,315
2023-03-21T02:58:32.156Z,315
2023-03-21T02:59:02.976Z,315
2023-03-21T02:59:35.793Z,315
2023-03-21T03:00:16.114Z,315
2023-03-21T03:00:36.207Z,315
2023-03-21T03:01:06.479Z,315
2023-03-21T03:01:38.020Z,315
2023-03-21T03:02:09.840Z,315
2023-03-21T03:02:40.017Z,315
2023-03-21T03:03:16.035Z,315
2023-03-21T03:03:41.620Z,315
2023-03-21T03:04:12.842Z,315
2023-03-21T03:04:43.561Z,315
2023-03-21T03:05:20.665Z,315
2023-03-21T03:05:45.814Z,315
2023-03-21T03:06:16.813Z,315
2023-03-21T03:06:47.885Z,315
2023-03-21T03:07:19.874Z,315
2023-03-21T03:07:50.143Z,315
2023-03-21T03:08:26.495Z,315
2023-03-21T03:09:01.934Z,315
2023-03-21T03:09:22.897Z,315
2023-03-21T03:09:54.241Z,315
2023-03-21T03:10:25.350Z,315
2023-03-21T03:10:55.895Z,315
2023-03-21T03:11:28.179Z,315
2023-03-21T03:11:58.245Z,315
2023-03-21T03:12:29.839Z,315
2023-03-21T03:13:00.219Z,315
2023-03-21T03:13:30.926Z,315
2023-03-21T03:14:15.649Z,315
2023-03-21T03:15:06.488Z,315
2023-03-21T03:15:35.263Z,315
2023-03-21T03:16:05.781Z,315
2023-03-21T03:16:36.794Z,315
2023-03-21T03:17:07.504Z,315
2023-03-21T03:17:39.525Z,315
2023-03-21T03:18:09.626Z,315
2023-03-21T03:18:40.845Z,315
2023-03-21T03:19:12.110Z,315
2023-03-21T03:19:49.936Z,315
2023-03-21T03:20:16.401Z,315
2023-03-21T03:20:44.881Z,315
2023-03-21T03:21:16.025Z,315
2023-03-21T03:21:47.258Z,315
2023-03-21T03:22:17.882Z,315
2023-03-21T03:22:49.827Z,315
2023-03-21T03:23:19.974Z,315
2023-03-21T03:23:51.013Z,315
2023-03-21T03:24:21.983Z,315
2023-03-21T03:24:53.510Z,315
2023-03-21T03:25:39.509Z,315
2023-03-21T03:25:54.486Z,315
2023-03-21T03:26:25.749Z,315
2023-03-21T03:26:56.783Z,315
2023-03-21T03:27:27.790Z,315
2023-03-21T03:27:59.722Z,315
2023-03-21T03:28:29.794Z,315
2023-03-21T03:29:00.849Z,315
2023-03-21T03:29:31.567Z,315
2023-03-21T03:30:05.636Z,315
2023-03-21T03:30:43.117Z,315
2023-03-21T03:31:09.498Z,315
2023-03-21T03:31:35.650Z,315
2023-03-21T03:32:06.983Z,315
2023-03-21T03:32:37.653Z,315
2023-03-21T03:33:10.052Z,315
2023-03-21T03:33:40.008Z,315
2023-03-21T03:34:10.809Z,315
2023-03-21T03:34:41.875Z,315
2023-03-21T03:35:13.021Z,315
2023-03-21T03:35:46.386Z,315
2023-03-21T03:36:28.432Z,315
2023-03-21T03:36:45.898Z,315
2023-03-21T03:37:16.851Z,315
2023-03-21T03:37:47.990Z,315
2023-03-21T03:38:20.111Z,315
2023-03-21T03:38:49.738Z,315
2023-03-21T03:39:21.137Z,315
2023-03-21T03:39:51.651Z,315
2023-03-21T03:40:22.751Z,315
2023-03-21T03:40:53.509Z,314
2023-03-21T03:41:25.649Z,312
2023-03-21T03:42:10.013Z,312
2023-03-21T03:42:28.762Z,312
2023-03-21T03:42:57.717Z,312
2023-03-21T03:43:29.862Z,312
2023-03-21T03:43:59.758Z,312
2023-03-21T03:44:30.840Z,312
2023-03-21T03:45:04.578Z,312
2023-03-21T03:45:32.728Z,312
2023-03-21T03:46:03.842Z,312
2023-03-21T03:46:34.844Z,312
2023-03-21T03:47:05.824Z,312
2023-03-21T03:47:42.074Z,312
2023-03-21T03:48:08.171Z,312
2023-03-21T03:48:40.043Z,312
2023-03-21T03:49:09.839Z,312
2023-03-21T03:49:40.777Z,312
2023-03-21T03:50:11.854Z,312
2023-03-21T03:50:42.898Z,312
2023-03-21T03:51:13.707Z,312
2023-03-21T03:51:44.964Z,312
2023-03-21T03:52:15.656Z,312
2023-03-21T03:52:55.386Z,312
2023-03-21T03:53:18.811Z,312
2023-03-21T03:53:50.027Z,312
2023-03-21T03:54:19.956Z,312
2023-03-21T03:54:50.867Z,312
2023-03-21T03:55:21.664Z,312
2023-03-21T03:55:52.817Z,312
2023-03-21T03:56:23.766Z,312
2023-03-21T03:56:54.716Z,312
2023-03-21T03:57:25.710Z,312
2023-03-21T03:57:56.749Z,312
2023-03-21T03:58:42.911Z,312
2023-03-21T03:58:59.931Z,312
2023-03-21T03:59:29.966Z,312
2023-03-21T04:00:04.202Z,312
2023-03-21T04:00:32.207Z,312
2023-03-21T04:01:02.885Z,312
2023-03-21T04:01:33.831Z,312
2023-03-21T04:02:05.010Z,312
2023-03-21T04:02:36.154Z,312
2023-03-21T04:03:07.004Z,312
2023-03-21T04:03:48.398Z,312
2023-03-21T04:04:13.207Z,312
2023-03-21T04:04:41.998Z,312
2023-03-21T04:05:10.602Z,312
2023-03-21T04:05:41.897Z,312
2023-03-21T04:06:13.091Z,312
2023-03-21T04:06:43.970Z,312
2023-03-21T04:07:15.069Z,312
2023-03-21T04:07:45.714Z,312
2023-03-21T04:08:16.851Z,312
2023-03-21T04:08:47.577Z,312
2023-03-21T04:09:25.057Z,312
2023-03-21T04:09:49.821Z,312
2023-03-21T04:10:21.166Z,312
2023-03-21T04:10:51.592Z,312
2023-03-21T04:11:22.754Z,312
2023-03-21T04:11:53.558Z,312
2023-03-21T04:12:24.961Z,312
2023-03-21T04:12:55.906Z,312
2023-03-21T04:13:27.091Z,312
2023-03-21T04:13:57.503Z,312
2023-03-21T04:14:42.006Z,312
2023-03-21T04:15:08.162Z,312
2023-03-21T04:15:33.911Z,312
2023-03-21T04:16:03.730Z,312
2023-03-21T04:16:35.616Z,312
2023-03-21T04:17:03.785Z,312
2023-03-21T04:17:34.935Z,312
2023-03-21T04:18:05.768Z,312
2023-03-21T04:18:37.069Z,312
2023-03-21T04:19:07.555Z,312
2023-03-21T04:19:40.266Z,312
2023-03-21T04:20:15.047Z,312
2023-03-21T04:20:40.589Z,312
2023-03-21T04:21:11.722Z,312
2023-03-21T04:21:42.969Z,312
2023-03-21T04:22:13.845Z,312
2023-03-21T04:22:44.694Z,312
2023-03-21T04:23:15.618Z,312
2023-03-21T04:23:46.660Z,312
2023-03-21T04:24:17.778Z,312
2023-03-21T04:24:49.955Z,312
2023-03-21T04:25:32.596Z,312
2023-03-21T04:25:56.717Z,312
2023-03-21T04:26:21.600Z,312
2023-03-21T04:26:53.081Z,312
2023-03-21T04:27:23.877Z,312
2023-03-21T04:27:55.027Z,312
2023-03-21T04:28:25.832Z,312
2023-03-21T04:28:56.853Z,312
2023-03-21T04:29:27.926Z,312
2023-03-21T04:29:59.560Z,312
2023-03-21T04:30:32.816Z,312
2023-03-21T04:31:06.761Z,312
2023-03-21T04:31:32.372Z,312
2023-03-21T04:32:03.082Z,312
2023-03-21T04:32:33.556Z,312
2023-03-21T04:33:04.754Z,312
2023-03-21T04:33:35.653Z,312
2023-03-21T04:34:06.978Z,312
2023-03-21T04:34:37.871Z,312
2023-03-21T04:35:09.804Z,312
2023-03-21T04:35:40.104Z,312
2023-03-21T04:36:10.797Z,312
2023-03-21T04:36:41.903Z,312
2023-03-21T04:37:12.564Z,312
2023-03-21T04:37:44.121Z,312
2023-03-21T04:38:14.667Z,312
2023-03-21T04:38:45.612Z,312
2023-03-21T04:39:17.392Z,312
2023-03-21T04:39:48.010Z,312
2023-03-21T04:40:19.736Z,312
2023-03-21T04:40:50.158Z,312
2023-03-21T04:41:21.029Z,312
2023-03-21T04:41:51.704Z,312
2023-03-21T04:42:22.861Z,312
2023-03-21T04:42:54.060Z,312
2023-03-21T04:43:24.840Z,312
2023-03-21T04:43:55.788Z,312
2023-03-21T04:44:26.680Z,312
2023-03-21T04:44:57.954Z,312
2023-03-21T04:45:32.922Z,312
2023-03-21T04:46:00.233Z,312
2023-03-21T04:46:31.064Z,312
2023-03-21T04:47:02.061Z,312
2023-03-21T04:47:32.755Z,312
2023-03-21T04:48:03.888Z,312
2023-03-21T04:48:35.035Z,312
2023-03-21T04:49:06.124Z,312
2023-03-21T04:49:36.961Z,312
2023-03-21T04:50:08.459Z,312
2023-03-21T04:50:40.106Z,312
2023-03-21T04:51:10.090Z,312
2023-03-21T04:51:40.646Z,312
2023-03-21T04:52:11.900Z,312
2023-03-21T04:52:43.179Z,312
2023-03-21T04:53:13.772Z,312
2023-03-21T04:53:44.752Z,312
2023-03-21T04:54:15.819Z,312
2023-03-21T04:54:47.286Z,312
2023-03-21T04:55:18.256Z,312
2023-03-21T04:55:53.491Z,312
2023-03-21T04:56:20.101Z,312
2023-03-21T04:56:51.033Z,312
2023-03-21T04:59:56.812Z,311
2023-03-21T05:00:31.548Z,312
2023-03-21T05:00:59.641Z,312
2023-03-21T05:01:29.779Z,312
2023-03-21T05:02:00.689Z,311
2023-03-21T05:02:31.536Z,311
2023-03-21T05:03:02.967Z,312
2023-03-21T05:03:34.472Z,312
2023-03-21T05:04:05.034Z,312
2023-03-21T05:04:35.828Z,312
2023-03-21T05:05:07.094Z,312
2023-03-21T05:05:37.785Z,312
2023-03-21T05:06:09.535Z,312
2023-03-21T05:06:39.774Z,312
2023-03-21T05:07:10.962Z,311
2023-03-21T05:07:42.416Z,307
2023-03-21T05:08:12.905Z,299
2023-03-21T05:08:43.801Z,298
2023-03-21T05:09:14.971Z,296
2023-03-21T05:09:45.624Z,295
2023-03-21T05:10:17.182Z,288
2023-03-21T05:10:48.429Z,286
2023-03-21T05:11:19.585Z,290
2023-03-21T05:11:50.075Z,289
2023-03-21T05:12:21.562Z,290
2023-03-21T05:12:55.945Z,293
2023-03-21T05:13:22.529Z,294
2023-03-21T05:13:53.656Z,294
2023-03-21T05:14:24.938Z,293
2023-03-21T05:14:56.319Z,293
2023-03-21T05:15:30.158Z,293
2023-03-21T05:15:57.997Z,293
2023-03-21T05:16:29.643Z,293
2023-03-21T05:17:00.176Z,293
2023-03-21T05:17:30.533Z,293
2023-03-21T05:18:01.644Z,293
2023-03-21T05:18:32.847Z,294
2023-03-21T05:19:03.403Z,294
2023-03-21T05:19:34.691Z,294
2023-03-21T05:20:05.714Z,294
2023-03-21T05:20:37.083Z,294
2023-03-21T05:21:08.184Z,294
2023-03-21T05:21:39.888Z,294
2023-03-21T05:22:10.369Z,294
2023-03-21T05:22:40.781Z,294
2023-03-21T05:23:11.774Z,294
2023-03-21T05:23:42.384Z,294
2023-03-21T05:24:13.873Z,294
2023-03-21T05:24:45.198Z,294
2023-03-21T05:25:33.456Z,294
2023-03-21T05:25:47.339Z,294
2023-03-21T05:26:18.120Z,294
2023-03-21T05:26:50.628Z,294
2023-03-21T05:27:20.185Z,294
2023-03-21T05:27:51.195Z,294
2023-03-21T05:28:21.848Z,294
2023-03-21T05:28:54.489Z,294
2023-03-21T05:29:24.333Z,294
2023-03-21T05:29:55.483Z,294
2023-03-21T05:30:28.927Z,294
2023-03-21T05:30:57.398Z,294
2023-03-21T05:31:28.181Z,294
2023-03-21T05:32:00.143Z,294
2023-03-21T05:32:30.073Z,294
2023-03-21T05:33:00.831Z,294
2023-03-21T05:33:31.811Z,294
2023-03-21T05:34:02.790Z,294
2023-03-21T05:34:34.222Z,294
2023-03-21T05:35:04.856Z,294
2023-03-21T05:35:36.794Z,294
2023-03-21T05:36:07.341Z,294
2023-03-21T05:36:38.084Z,294
2023-03-21T05:37:10.486Z,294
2023-03-21T05:37:40.383Z,295
2023-03-21T05:38:10.979Z,295
2023-03-21T05:38:43.178Z,295
2023-03-21T05:39:13.308Z,295
2023-03-21T05:39:43.841Z,295
2023-03-21T05:40:14.751Z,295
2023-03-21T05:40:46.123Z,295
2023-03-21T05:41:18.155Z,295
2023-03-21T05:41:47.849Z,296
2023-03-21T05:42:20.259Z,296
2023-03-21T05:42:50.042Z,296
2023-03-21T05:43:21.191Z,296
2023-03-21T05:43:51.897Z,296
2023-03-21T05:44:23.076Z,296
2023-03-21T05:44:53.894Z,296
2023-03-21T05:45:27.802Z,296
2023-03-21T05:45:56.222Z,296
2023-03-21T05:46:27.055Z,296
2023-03-21T05:46:59.231Z,296
2023-03-21T05:47:30.471Z,296
2023-03-21T05:48:00.493Z,296
2023-03-21T05:48:31.265Z,296
2023-03-21T05:49:02.039Z,296
2023-03-21T05:49:32.999Z,296
2023-03-21T05:50:03.953Z,296
2023-03-21T05:50:34.954Z,296
2023-03-21T05:51:06.136Z,296
2023-03-21T05:51:36.990Z,296
2023-03-21T05:52:08.479Z,296
2023-03-21T05:52:40.480Z,296
2023-03-21T05:53:10.719Z,296
2023-03-21T05:53:41.267Z,296
2023-03-21T05:54:12.163Z,296
2023-03-21T05:54:42.986Z,296
2023-03-21T05:55:14.165Z,296
2023-03-21T05:55:45.144Z,296
2023-03-21T05:56:16.246Z,296
2023-03-21T05:56:47.037Z,296
2023-03-21T05:57:18.009Z,296
2023-03-21T05:57:49.895Z,297
2023-03-21T05:58:19.866Z,297
2023-03-21T05:58:50.893Z,297
2023-03-21T05:59:21.822Z,297
2023-03-21T05:59:52.784Z,297
2023-03-21T06:00:26.725Z,297
2023-03-21T06:00:55.178Z,297
2023-03-21T06:01:26.324Z,297
2023-03-21T06:01:57.102Z,297
2023-03-21T06:02:28.814Z,297
2023-03-21T06:03:00.016Z,297
2023-03-21T06:03:29.986Z,297
2023-03-21T06:04:01.451Z,297
2023-03-21T06:04:31.922Z,297
2023-03-21T06:05:03.556Z,297
2023-03-21T06:05:34.772Z,297
2023-03-21T06:06:05.063Z,297
2023-03-21T06:06:35.988Z,297
2023-03-21T06:07:07.129Z,297
2023-03-21T06:07:37.655Z,297
2023-03-21T06:08:09.873Z,297
2023-03-21T06:08:40.273Z,297
2023-03-21T06:09:11.296Z,297
2023-03-21T06:09:42.274Z,297
2023-03-21T06:10:13.196Z,297
2023-03-21T06:10:44.062Z,297
2023-03-21T06:11:14.930Z,297
2023-03-21T06:11:45.959Z,297
2023-03-21T06:12:17.650Z,297
2023-03-21T06:12:47.980Z,297
2023-03-21T06:13:19.992Z,297
2023-03-21T06:13:49.856Z,297
2023-03-21T06:14:21.010Z,297
2023-03-21T06:14:52.060Z,297
2023-03-21T06:15:26.056Z,297
2023-03-21T06:15:54.251Z,297
2023-03-21T06:16:25.546Z,297
2023-03-21T06:16:56.350Z,297
2023-03-21T06:17:27.231Z,297
2023-03-21T06:17:58.038Z,297
2023-03-21T06:18:29.937Z,297
2023-03-21T06:19:00.004Z,297
2023-03-21T06:19:30.807Z,297
2023-03-21T06:20:02.144Z,297
2023-03-21T06:20:32.746Z,297
2023-03-21T06:21:03.906Z,297
2023-03-21T06:21:34.905Z,297
2023-03-21T06:22:05.816Z,297
2023-03-21T06:22:37.337Z,297
2023-03-21T06:23:08.113Z,297
2023-03-21T06:23:40.112Z,297
2023-03-21T06:24:10.003Z,297
2023-03-21T06:24:40.973Z,297
2023-03-21T06:25:11.855Z,297
2023-03-21T06:25:42.829Z,297
2023-03-21T06:26:14.031Z,297
2023-03-21T06:26:44.957Z,297
2023-03-21T06:27:15.828Z,297
2023-03-21T06:27:46.944Z,297
2023-03-21T06:28:17.874Z,297
2023-03-21T06:28:50.121Z,297
2023-03-21T06:29:20.366Z,297
2023-03-21T06:29:51.554Z,297
2023-03-21T06:30:25.007Z,297
2023-03-21T06:30:52.801Z,297
2023-03-21T06:31:23.875Z,297
2023-03-21T06:31:55.040Z,297
2023-03-21T06:32:26.066Z,297
2023-03-21T06:32:57.480Z,297
2023-03-21T06:33:28.278Z,297
2023-03-21T06:33:59.967Z,297
2023-03-21T06:34:30.110Z,297
2023-03-21T06:35:00.865Z,297
2023-03-21T06:35:31.932Z,297
2023-03-21T06:36:03.063Z,297
2023-03-21T06:36:34.412Z,297
2023-03-21T06:37:04.942Z,297
2023-03-21T06:37:36.196Z,297
2023-03-21T06:38:07.229Z,297
2023-03-21T06:38:38.248Z,297
2023-03-21T06:39:10.340Z,297
2023-03-21T06:39:39.861Z,297
2023-03-21T06:40:11.333Z,297
2023-03-21T06:40:42.254Z,297
2023-03-21T06:41:13.390Z,297
2023-03-21T06:41:44.137Z,297
2023-03-21T06:42:15.504Z,297
2023-03-21T06:42:46.010Z,297
2023-03-21T06:43:16.999Z,297
2023-03-21T06:43:47.721Z,297
2023-03-21T06:44:19.833Z,297
2023-03-21T06:44:50.189Z,297
2023-03-21T06:45:23.692Z,297
2023-03-21T06:45:51.917Z,297
2023-03-21T06:46:22.934Z,297
2023-03-21T06:46:54.487Z,297
2023-03-21T06:47:25.435Z,297
2023-03-21T06:47:56.222Z,297
2023-03-21T06:48:26.951Z,297
2023-03-21T06:48:58.164Z,297
2023-03-21T06:49:30.228Z,297
2023-03-21T06:50:00.376Z,297
2023-03-21T06:50:31.525Z,297
2023-03-21T06:51:02.133Z,297
2023-03-21T06:51:32.993Z,297
2023-03-21T06:52:04.220Z,297
2023-03-21T06:52:35.180Z,297
2023-03-21T06:53:05.916Z,297
2023-03-21T06:53:37.157Z,297
2023-03-21T06:54:07.999Z,297
2023-03-21T06:54:39.905Z,297
2023-03-21T06:55:09.949Z,297
2023-03-21T06:55:41.158Z,297
2023-03-21T06:56:12.535Z,297
2023-03-21T06:56:43.269Z,297
2023-03-21T06:57:14.405Z,297
2023-03-21T06:57:46.919Z,297
2023-03-21T06:58:16.292Z,297
2023-03-21T06:58:47.144Z,297
2023-03-21T06:59:18.274Z,297
2023-03-21T06:59:50.237Z,297
2023-03-21T07:00:23.011Z,297
2023-03-21T07:00:51.006Z,297
2023-03-21T07:01:22.234Z,297
2023-03-21T07:01:53.087Z,297
2023-03-21T07:02:24.077Z,297
2023-03-21T07:02:55.073Z,297
2023-03-21T07:03:26.219Z,297
2023-03-21T07:03:57.069Z,297
2023-03-21T07:04:28.244Z,297
2023-03-21T07:05:00.049Z,297
2023-03-21T07:05:30.629Z,297
2023-03-21T07:06:01.144Z,297
2023-03-21T07:06:31.857Z,297
2023-03-21T07:07:02.846Z,297
2023-03-21T07:07:33.910Z,297
2023-03-21T07:08:04.986Z,297
2023-03-21T07:08:35.822Z,297
2023-03-21T07:09:07.253Z,297
2023-03-21T07:09:37.889Z,297
2023-03-21T07:10:10.081Z,297
2023-03-21T07:10:39.874Z,297
2023-03-21T07:11:10.984Z,297
2023-03-21T07:11:42.480Z,297
2023-03-21T07:12:12.955Z,297
2023-03-21T07:12:44.094Z,297
2023-03-21T07:13:15.360Z,297
2023-03-21T07:13:46.435Z,297
2023-03-21T07:14:16.907Z,297
2023-03-21T07:14:48.253Z,297
2023-03-21T07:15:22.976Z,297
2023-03-21T07:15:50.162Z,297
2023-03-21T07:16:21.014Z,297
2023-03-21T07:16:52.109Z,297
2023-03-21T07:17:23.231Z,297
2023-03-21T07:17:54.161Z,297
2023-03-21T07:18:25.946Z,297
2023-03-21T07:18:56.945Z,297
2023-03-21T07:19:27.411Z,297
2023-03-21T07:19:57.881Z,297
2023-03-21T07:20:31.410Z,297
2023-03-21T07:21:00.536Z,297
2023-03-21T07:21:31.566Z,297
2023-03-21T07:22:02.370Z,297
2023-03-21T07:22:33.094Z,297
2023-03-21T07:23:04.065Z,297
2023-03-21T07:23:34.917Z,297
2023-03-21T07:24:06.048Z,297
2023-03-21T07:24:37.324Z,297
2023-03-21T07:25:08.469Z,297
2023-03-21T07:25:40.882Z,297
2023-03-21T07:26:10.473Z,297
2023-03-21T07:26:41.776Z,297
2023-03-21T07:27:13.028Z,297
2023-03-21T07:27:43.637Z,297
2023-03-21T07:28:14.667Z,297
2023-03-21T07:28:45.459Z,297
2023-03-21T07:29:16.252Z,297
2023-03-21T07:29:47.489Z,297
2023-03-21T07:30:21.693Z,297
2023-03-21T07:30:49.979Z,297
2023-03-21T07:31:20.484Z,297
2023-03-21T07:31:51.436Z,297
2023-03-21T07:32:21.984Z,297
2023-03-21T07:32:53.020Z,297
2023-03-21T07:33:24.169Z,297
2023-03-21T07:33:54.887Z,297
2023-03-21T07:34:26.057Z,297
2023-03-21T07:34:56.942Z,297
2023-03-21T07:35:28.089Z,297
2023-03-21T07:35:59.998Z,297
2023-03-21T07:36:30.017Z,297
2023-03-21T07:37:01.383Z,297
2023-03-21T07:37:31.975Z,297